Time;durP1;ratioP1;P1;durP2;ratioP2;P2;SDS_P1;SDS_P2;PMS_P1;PMS_P2;Temp;Humidity;BMP_temperature;BMP_pressure;BME280_temperature;BME280_humidity;BME280_pressure;Samples;Min_cycle;Max_cycle;Signal;HPM_P1;HPM_P2
2022/03/22 00:00:00;;;;;;;27.85;18.58;;;11.60;94.30;;;;;;7336578;19;110225;-81
2022/03/22 00:02:27;;;;;;;31.23;18.77;;;11.50;94.30;;;;;;7337490;19;112247;-81
2022/03/22 00:04:55;;;;;;;26.98;17.25;;;11.50;94.30;;;;;;7333448;19;111887;-81
2022/03/22 00:07:22;;;;;;;33.15;18.65;;;11.40;94.10;;;;;;7341594;19;110187;-81
2022/03/22 00:09:49;;;;;;;29.88;17.98;;;11.40;94.20;;;;;;7338189;19;112168;-81
2022/03/22 00:12:16;;;;;;;27.85;18.05;;;11.40;94.20;;;;;;7338094;19;111271;-81
2022/03/22 00:14:43;;;;;;;27.70;18.63;;;11.30;94.20;;;;;;7338712;19;111661;-81
2022/03/22 00:17:30;;;;;;;31.27;18.73;;;11.30;94.20;;;;;;7338131;19;113012;-80
2022/03/22 00:19:58;;;;;;;31.15;17.75;;;11.30;94.20;;;;;;7336451;19;112613;-81
2022/03/22 00:22:26;;;;;;;26.73;17.58;;;11.30;94.20;;;;;;7338458;19;111644;-81
2022/03/22 00:24:54;;;;;;;30.15;19.00;;;11.20;94.20;;;;;;7335009;19;113193;-81
2022/03/22 00:27:21;;;;;;;32.70;18.15;;;11.20;94.30;;;;;;7337168;19;110645;-81
2022/03/22 00:29:48;;;;;;;32.85;20.02;;;11.10;94.30;;;;;;7340676;19;110390;-81
2022/03/22 00:32:17;;;;;;;32.85;19.13;;;11.10;94.50;;;;;;7337076;19;110983;-81
2022/03/22 00:34:44;;;;;;;40.08;21.85;;;11.10;94.60;;;;;;7338750;19;111303;-81
2022/03/22 00:37:17;;;;;;;34.92;19.88;;;11.00;95.20;;;;;;7335749;19;111734;-81
2022/03/22 00:39:45;;;;;;;40.03;21.17;;;11.00;95.20;;;;;;7335778;19;110431;-81
2022/03/22 00:42:13;;;;;;;31.95;19.83;;;11.00;95.10;;;;;;7335572;19;112175;-81
2022/03/22 00:44:41;;;;;;;36.83;20.40;;;10.90;95.40;;;;;;7336095;19;111667;-81
2022/03/22 00:47:09;;;;;;;34.92;18.45;;;10.90;95.20;;;;;;7334686;19;110500;-80
2022/03/22 00:49:36;;;;;;;34.30;19.80;;;10.90;95.70;;;;;;7341188;19;111623;-81
2022/03/22 00:52:04;;;;;;;35.53;19.25;;;10.80;95.40;;;;;;7336694;19;110700;-81
2022/03/22 00:54:33;;;;;;;37.20;20.92;;;10.80;95.30;;;;;;7335953;19;111826;-81
2022/03/22 00:57:00;;;;;;;40.13;20.45;;;10.80;95.40;;;;;;7334045;19;111861;-81
2022/03/22 01:02:13;;;;;;;36.28;20.27;;;10.70;95.60;;;;;;7337027;19;111482;-81
2022/03/22 01:04:42;;;;;;;40.50;19.55;;;10.70;95.50;;;;;;7334990;19;111754;-81
2022/03/22 01:07:10;;;;;;;33.05;19.80;;;10.60;95.50;;;;;;7335777;19;110585;-81
2022/03/22 01:09:37;;;;;;;34.80;19.75;;;10.50;95.70;;;;;;7335734;19;111747;-81
2022/03/22 01:12:04;;;;;;;31.42;19.60;;;10.50;95.70;;;;;;7338227;19;112009;-81
2022/03/22 01:14:32;;;;;;;35.72;21.40;;;10.50;95.90;;;;;;7336977;19;112327;-81
2022/03/22 01:16:59;;;;;;;38.33;20.15;;;10.40;96.00;;;;;;7335301;19;111891;-82
2022/03/22 01:19:28;;;;;;;36.13;20.00;;;10.40;95.90;;;;;;7335928;19;110465;-81
2022/03/22 01:21:55;;;;;;;37.17;20.20;;;10.40;95.90;;;;;;7336328;19;112010;-80
2022/03/22 01:24:22;;;;;;;31.73;19.88;;;10.30;95.90;;;;;;7334202;19;111773;-81
2022/03/22 01:26:50;;;;;;;35.67;20.65;;;10.30;95.90;;;;;;7336957;19;111508;-81
2022/03/22 01:29:17;;;;;;;41.80;20.73;;;10.30;96.00;;;;;;7336181;19;111870;-81
2022/03/22 01:31:44;;;;;;;38.85;21.80;;;10.20;95.90;;;;;;7336873;19;111775;-81
2022/03/22 01:34:12;;;;;;;33.92;20.58;;;10.20;96.10;;;;;;7341228;19;111158;-81
2022/03/22 01:36:39;;;;;;;37.08;19.88;;;10.10;96.00;;;;;;7337030;19;112509;-81
2022/03/22 01:39:06;;;;;;;34.97;19.13;;;10.10;96.30;;;;;;7336534;19;110253;-81
2022/03/22 01:41:34;;;;;;;31.83;19.48;;;10.10;96.10;;;;;;7337181;19;111382;-81
2022/03/22 01:44:01;;;;;;;34.80;19.08;;;10.10;96.10;;;;;;7334702;19;112604;-81
2022/03/22 01:46:28;;;;;;;37.72;19.50;;;10.10;96.20;;;;;;7329490;19;111781;-81
2022/03/22 01:48:56;;;;;;;33.30;19.00;;;10.00;96.40;;;;;;7334556;19;111312;-81
2022/03/22 01:51:23;;;;;;;31.02;18.25;;;10.00;96.40;;;;;;7332995;19;111710;-81
2022/03/22 01:53:50;;;;;;;35.78;18.35;;;10.00;96.50;;;;;;7333207;19;110618;-81
2022/03/22 01:56:17;;;;;;;30.95;18.65;;;10.10;96.60;;;;;;7339558;19;112587;-81
2022/03/22 01:58:44;;;;;;;30.67;18.77;;;10.00;96.50;;;;;;7333297;19;112854;-81
2022/03/22 02:06:46;;;;;;;26.77;16.57;;;10.00;97.40;;;;;;7335446;19;113400;-80
2022/03/22 02:09:13;;;;;;;26.85;17.48;;;10.00;97.20;;;;;;7335316;19;111886;-81
2022/03/22 02:11:40;;;;;;;;;;;10.00;97.00;;;;;;7336787;19;111841;-80
2022/03/22 02:14:08;;;;;;;31.80;17.38;;;9.90;97.20;;;;;;7339433;19;110387;-81
2022/03/22 02:16:37;;;;;;;24.33;15.68;;;9.90;97.00;;;;;;7337138;19;110086;-81
2022/03/22 02:19:09;;;;;;;27.25;17.00;;;9.90;96.90;;;;;;7334799;19;112111;-80
2022/03/22 02:21:39;;;;;;;33.20;18.73;;;9.90;97.00;;;;;;7331491;19;111382;-80
2022/03/22 02:24:07;;;;;;;25.65;16.58;;;9.90;97.60;;;;;;7334879;19;111856;-80
2022/03/22 02:26:38;;;;;;;38.53;20.75;;;9.90;97.00;;;;;;7334757;19;110189;-80
2022/03/22 02:29:06;;;;;;;39.03;19.65;;;9.80;97.50;;;;;;7335258;19;111403;-80
2022/03/22 02:31:33;;;;;;;28.38;17.98;;;9.80;97.40;;;;;;7342592;19;112130;-81
2022/03/22 02:34:00;;;;;;;34.92;18.13;;;9.80;97.10;;;;;;7340289;19;111782;-80
2022/03/22 02:36:27;;;;;;;33.35;19.33;;;9.80;97.10;;;;;;7339946;19;111427;-81
2022/03/22 02:38:54;;;;;;;33.40;19.83;;;9.70;97.40;;;;;;7344739;19;111781;-80
2022/03/22 02:41:24;;;;;;;30.35;19.58;;;9.70;97.70;;;;;;7342196;19;111569;-81
2022/03/22 02:43:52;;;;;;;34.67;18.20;;;9.70;97.40;;;;;;7340078;19;110745;-81
2022/03/22 02:46:20;;;;;;;30.65;18.60;;;9.70;97.30;;;;;;7341948;19;110731;-81
2022/03/22 02:48:48;;;;;;;28.23;17.02;;;9.70;97.40;;;;;;7343424;19;111431;-81
2022/03/22 02:51:16;;;;;;;32.88;17.73;;;9.70;97.30;;;;;;7342346;19;111779;-81
2022/03/22 02:53:43;;;;;;;31.05;18.38;;;9.60;97.30;;;;;;7340167;19;111270;-81
2022/03/22 02:56:10;;;;;;;28.55;17.08;;;9.60;97.40;;;;;;7339671;19;111318;-81
2022/03/22 02:58:38;;;;;;;27.65;17.90;;;9.60;97.30;;;;;;7341212;19;111987;-80
2022/03/22 03:01:05;;;;;;;29.50;17.55;;;9.60;97.40;;;;;;7347321;19;110886;-81
2022/03/22 03:03:35;;;;;;;30.88;17.38;;;9.50;97.40;;;;;;7339710;19;110697;-81
2022/03/22 03:06:02;;;;;;;29.42;17.55;;;9.60;97.50;;;;;;7341649;19;113135;-80
2022/03/22 03:08:29;;;;;;;26.20;18.13;;;9.50;97.60;;;;;;7337585;19;110872;-81
2022/03/22 03:10:57;;;;;;;29.02;17.50;;;9.50;97.50;;;;;;7341650;19;112040;-80
2022/03/22 03:13:24;;;;;;;31.38;18.83;;;9.50;97.80;;;;;;7340996;19;111021;-81
2022/03/22 03:15:51;;;;;;;31.48;18.05;;;9.40;97.90;;;;;;7339986;19;111827;-81
2022/03/22 03:18:19;;;;;;;31.40;17.45;;;9.40;97.80;;;;;;7339559;19;112199;-81
2022/03/22 03:20:46;;;;;;;30.30;16.85;;;9.30;98.30;;;;;;7339329;19;110869;-80
2022/03/22 03:23:13;;;;;;;30.20;18.20;;;9.30;98.50;;;;;;7344027;19;111500;-81
2022/03/22 03:25:40;;;;;;;29.52;17.98;;;9.30;98.60;;;;;;7339084;19;110858;-80
2022/03/22 03:28:09;;;;;;;32.13;17.27;;;9.20;98.30;;;;;;7340270;19;111566;-81
2022/03/22 03:30:36;;;;;;;31.38;18.80;;;9.20;98.20;;;;;;7342283;19;112096;-81
2022/03/22 03:33:03;;;;;;;29.30;17.88;;;9.20;99.10;;;;;;7340934;19;111511;-81
2022/03/22 03:35:31;;;;;;;28.38;17.50;;;9.20;98.70;;;;;;7337940;19;112025;-81
2022/03/22 03:37:58;;;;;;;28.88;17.58;;;9.20;99.10;;;;;;7340646;19;111851;-80
2022/03/22 03:41:53;;;;;;;25.58;16.13;;;9.20;98.60;;;;;;7338611;19;110718;-81
2022/03/22 03:43:12;;;;;;;31.37;18.00;;;9.10;98.40;;;;;;7339415;19;111830;-81
2022/03/22 03:48:24;;;;;;;22.95;16.02;;;9.10;98.70;;;;;;7338883;19;112353;-81
2022/03/22 03:50:52;;;;;;;29.13;17.88;;;9.10;98.50;;;;;;7338859;19;111820;-81
2022/03/22 03:53:19;;;;;;;23.60;16.23;;;9.10;98.40;;;;;;7333975;19;110855;-81
2022/03/22 03:55:46;;;;;;;23.95;16.15;;;9.10;98.20;;;;;;7334828;19;111568;-81
2022/03/22 03:58:13;;;;;;;27.35;16.25;;;9.00;98.20;;;;;;7337591;19;111806;-80
2022/03/22 04:00:40;;;;;;;25.33;16.40;;;9.00;98.30;;;;;;7335110;19;110861;-79
2022/03/22 04:03:07;;;;;;;26.80;16.55;;;8.80;98.60;;;;;;7338769;19;111371;-81
2022/03/22 04:05:34;;;;;;;24.75;15.88;;;8.70;98.90;;;;;;7339361;19;110755;-79
2022/03/22 04:08:06;;;;;;;29.08;16.23;;;8.60;98.90;;;;;;7343054;19;110292;-79
2022/03/22 04:10:34;;;;;;;32.08;16.10;;;8.60;98.90;;;;;;7338948;19;111922;-79
2022/03/22 04:13:01;;;;;;;30.02;16.38;;;8.60;99.20;;;;;;7339664;19;112766;-79
2022/03/22 04:15:29;;;;;;;29.85;16.60;;;8.60;99.10;;;;;;7336262;19;114201;-80
2022/03/22 04:17:59;;;;;;;32.42;16.00;;;8.60;99.10;;;;;;7338182;19;115150;-80
2022/03/22 04:20:26;;;;;;;27.60;15.20;;;8.60;99.10;;;;;;7339018;19;111264;-80
2022/03/22 04:22:54;;;;;;;24.35;15.60;;;8.60;99.10;;;;;;7339804;19;110989;-80
2022/03/22 04:25:22;;;;;;;28.95;16.35;;;8.60;98.90;;;;;;7338652;19;112124;-79
2022/03/22 04:33:20;;;;;;;24.17;15.27;;;8.50;99.70;;;;;;7339733;19;110982;-80
2022/03/22 04:35:47;;;;;;;29.95;15.68;;;8.50;99.70;;;;;;7336911;19;114917;-79
2022/03/22 04:38:14;;;;;;;24.35;15.10;;;8.50;99.60;;;;;;7338898;19;112110;-80
2022/03/22 04:40:42;;;;;;;27.75;14.63;;;8.50;99.60;;;;;;7339249;19;110880;-80
2022/03/22 04:43:09;;;;;;;24.00;14.60;;;8.50;99.70;;;;;;7336931;19;111534;-79
2022/03/22 04:45:36;;;;;;;26.38;16.40;;;8.50;99.50;;;;;;7335159;19;111796;-80
2022/03/22 04:48:04;;;;;;;22.92;14.77;;;8.50;99.60;;;;;;7339054;19;110462;-80
2022/03/22 04:50:31;;;;;;;26.92;15.00;;;8.40;99.50;;;;;;7343916;19;111511;-80
2022/03/22 04:58:30;;;;;;;28.25;14.98;;;8.40;99.60;;;;;;7337495;19;111667;-80
2022/03/22 05:00:58;;;;;;;28.58;15.77;;;8.40;99.80;;;;;;7339091;19;110955;-80
2022/03/22 05:03:26;;;;;;;26.30;15.10;;;8.30;99.90;;;;;;7336820;19;111755;-80
2022/03/22 05:08:38;;;;;;;25.95;15.40;;;8.40;99.90;;;;;;7336988;19;111118;-80
2022/03/22 05:11:06;;;;;;;32.28;16.27;;;8.30;99.90;;;;;;7339001;19;111899;-79
2022/03/22 05:13:33;;;;;;;26.60;15.75;;;8.30;99.90;;;;;;7339945;19;112098;-80
2022/03/22 05:16:01;;;;;;;39.28;16.17;;;8.20;99.90;;;;;;7336248;19;110605;-80
2022/03/22 05:18:28;;;;;;;28.00;15.20;;;8.20;99.90;;;;;;7335368;19;112085;-80
2022/03/22 05:20:55;;;;;;;25.20;15.73;;;8.20;99.90;;;;;;7337521;19;111226;-80
2022/03/22 05:23:22;;;;;;;22.05;14.95;;;8.10;99.90;;;;;;7337863;19;111597;-79
2022/03/22 05:25:49;;;;;;;;;;;8.10;99.90;;;;;;7337146;19;111683;-79
2022/03/22 05:28:16;;;;;;;28.27;15.40;;;8.10;99.90;;;;;;7343011;19;110105;-80
2022/03/22 05:30:43;;;;;;;;;;;8.00;99.90;;;;;;7338900;19;109873;-80
2022/03/22 05:33:10;;;;;;;23.75;14.25;;;8.00;99.90;;;;;;7344883;19;108786;-80
2022/03/22 05:35:37;;;;;;;31.17;14.77;;;7.90;99.90;;;;;;7342382;19;110413;-79
2022/03/22 05:38:04;;;;;;;38.47;15.27;;;8.00;99.90;;;;;;7337070;19;111754;-79
2022/03/22 05:40:32;;;;;;;35.08;15.13;;;8.00;99.90;;;;;;7337005;19;111518;-80
2022/03/22 05:42:59;;;;;;;31.42;15.70;;;8.00;99.90;;;;;;7337730;19;113964;-80
2022/03/22 05:45:29;;;;;;;26.60;14.65;;;8.10;99.90;;;;;;7335202;19;111769;-79
2022/03/22 05:47:56;;;;;;;32.65;15.30;;;8.00;99.90;;;;;;7336993;19;110204;-80
2022/03/22 05:50:23;;;;;;;32.97;14.73;;;8.00;99.90;;;;;;7335687;19;111104;-80
2022/03/22 05:52:50;;;;;;;28.02;14.35;;;8.00;99.90;;;;;;7334520;19;112166;-80
2022/03/22 05:55:17;;;;;;;;;;;8.00;99.90;;;;;;7334778;19;111160;-80
2022/03/22 05:57:44;;;;;;;33.72;15.15;;;8.00;99.90;;;;;;7348122;19;111521;-80
2022/03/22 06:00:13;;;;;;;24.10;14.65;;;8.00;99.90;;;;;;7335487;19;111334;-80
2022/03/22 06:02:41;;;;;;;25.73;14.38;;;8.00;99.90;;;;;;7335906;19;115604;-80
2022/03/22 06:05:17;;;;;;;23.13;15.48;;;8.00;99.90;;;;;;7342688;19;111777;-80
2022/03/22 06:07:44;;;;;;;25.75;15.02;;;8.00;99.90;;;;;;7343151;19;110157;-80
2022/03/22 06:10:14;;;;;;;25.38;14.15;;;8.00;99.90;;;;;;7340128;19;113250;-80
2022/03/22 06:12:51;;;;;;;31.35;15.27;;;8.00;99.90;;;;;;7341264;19;111934;-80
2022/03/22 06:15:38;;;;;;;29.50;14.18;;;8.00;99.90;;;;;;7341894;19;110186;-80
2022/03/22 06:18:07;;;;;;;28.33;14.80;;;8.00;99.90;;;;;;7341384;19;111815;-81
2022/03/22 06:20:43;;;;;;;23.35;14.77;;;8.10;99.90;;;;;;7347507;19;111187;-81
2022/03/22 06:23:13;;;;;;;22.25;14.50;;;8.10;99.90;;;;;;7340611;19;111492;-80
2022/03/22 06:25:41;;;;;;;28.00;15.77;;;8.10;99.90;;;;;;7339759;19;112860;-81
2022/03/22 06:28:10;;;;;;;23.17;15.50;;;8.10;99.90;;;;;;7343248;19;110964;-81
2022/03/22 06:30:37;;;;;;;32.72;16.08;;;8.20;99.90;;;;;;7342997;19;112155;-81
2022/03/22 06:33:10;;;;;;;30.83;16.52;;;8.30;99.90;;;;;;7341038;19;112851;-82
2022/03/22 06:35:38;;;;;;;37.92;17.45;;;8.40;99.90;;;;;;7342680;19;114032;-81
2022/03/22 06:38:05;;;;;;;28.52;15.55;;;8.40;99.90;;;;;;7341636;19;111408;-80
2022/03/22 06:40:38;;;;;;;30.02;14.82;;;8.50;99.90;;;;;;7339920;19;111909;-80
2022/03/22 06:43:08;;;;;;;31.10;16.50;;;8.50;99.90;;;;;;7348221;19;110768;-81
2022/03/22 06:45:36;;;;;;;36.35;16.77;;;8.50;99.90;;;;;;7339598;19;113863;-82
2022/03/22 06:48:07;;;;;;;30.58;16.42;;;8.60;99.90;;;;;;7342258;19;110483;-81
2022/03/22 06:50:35;;;;;;;32.03;16.15;;;8.70;99.90;;;;;;7341709;19;110375;-81
2022/03/22 06:53:04;;;;;;;27.80;15.98;;;8.80;99.90;;;;;;7340633;19;112123;-81
2022/03/22 06:55:32;;;;;;;38.50;16.17;;;8.90;99.90;;;;;;7339602;19;111265;-80
2022/03/22 06:58:01;;;;;;;29.55;15.80;;;9.00;99.90;;;;;;7343031;19;111412;-81
2022/03/22 07:00:28;;;;;;;26.83;15.88;;;9.10;99.90;;;;;;7340772;19;111647;-81
2022/03/22 07:02:56;;;;;;;31.25;16.27;;;9.20;99.90;;;;;;7346539;19;110268;-81
2022/03/22 07:05:23;;;;;;;35.60;16.88;;;9.30;99.90;;;;;;7340313;19;111668;-81
2022/03/22 07:07:50;;;;;;;39.38;16.95;;;9.40;99.90;;;;;;7342442;19;110785;-81
2022/03/22 07:10:18;;;;;;;39.40;16.95;;;9.50;99.90;;;;;;7339119;19;111481;-81
2022/03/22 07:13:05;;;;;;;42.65;17.38;;;9.60;99.90;;;;;;7336123;19;112280;-81
2022/03/22 07:15:35;;;;;;;44.53;16.75;;;9.80;99.90;;;;;;7331932;19;113221;-81
2022/03/22 07:18:05;;;;;;;43.72;17.75;;;9.90;99.90;;;;;;7338854;19;112437;-81
2022/03/22 07:20:33;;;;;;;45.80;17.20;;;10.00;99.90;;;;;;7338521;19;110867;-80
2022/03/22 07:23:01;;;;;;;37.10;17.52;;;10.10;99.90;;;;;;7341114;19;110768;-81
2022/03/22 07:25:28;;;;;;;47.20;17.60;;;10.20;99.90;;;;;;7344457;19;111770;-81
2022/03/22 07:27:56;;;;;;;31.75;17.15;;;10.30;99.90;;;;;;7340575;19;110015;-80
2022/03/22 07:30:23;;;;;;;37.00;17.15;;;10.40;99.90;;;;;;7341396;19;111530;-80
2022/03/22 07:32:50;;;;;;;31.08;16.25;;;10.50;99.90;;;;;;7337688;19;111446;-82
2022/03/22 07:35:19;;;;;;;37.47;17.33;;;10.60;99.90;;;;;;7336734;19;111698;-81
2022/03/22 07:37:48;;;;;;;31.42;16.67;;;10.70;99.90;;;;;;7337079;19;111316;-81
2022/03/22 07:40:16;;;;;;;30.08;16.73;;;10.80;99.90;;;;;;7340169;19;111764;-80
2022/03/22 07:42:44;;;;;;;30.48;16.88;;;11.00;99.90;;;;;;7336293;19;110333;-81
2022/03/22 07:45:11;;;;;;;28.88;16.65;;;11.10;99.90;;;;;;7337483;19;111164;-81
2022/03/22 07:47:41;;;;;;;30.83;17.35;;;11.20;99.90;;;;;;7345334;19;112053;-82
2022/03/22 07:53:00;;;;;;;25.50;16.45;;;11.50;99.90;;;;;;7340076;19;115882;-82
2022/03/22 07:55:30;;;;;;;32.60;16.50;;;11.60;99.90;;;;;;7339466;19;111136;-82
2022/03/22 07:57:58;;;;;;;30.17;17.08;;;11.70;99.90;;;;;;7336378;19;112617;-81
2022/03/22 08:00:26;;;;;;;26.55;16.85;;;11.80;99.50;;;;;;7339608;19;111896;-82
2022/03/22 08:02:58;;;;;;;34.22;17.10;;;11.90;99.50;;;;;;7339538;19;110351;-82
2022/03/22 08:05:27;;;;;;;25.20;16.60;;;12.10;99.40;;;;;;7337773;19;111436;-81
2022/03/22 08:07:54;;;;;;;23.50;16.17;;;12.20;99.30;;;;;;7339528;19;112595;-81
2022/03/22 08:10:34;;;;;;;35.80;17.13;;;12.30;99.20;;;;;;7343579;19;110527;-81
2022/03/22 08:13:06;;;;;;;26.50;16.20;;;12.50;99.20;;;;;;7337615;19;111819;-82
2022/03/22 08:15:33;;;;;;;30.52;15.65;;;12.60;99.00;;;;;;7339485;19;113061;-81
2022/03/22 08:18:00;;;;;;;27.60;16.77;;;12.70;98.70;;;;;;7337199;19;112324;-82
2022/03/22 08:20:30;;;;;;;25.05;15.68;;;12.80;98.40;;;;;;7338106;19;111941;-82
2022/03/22 08:23:04;;;;;;;33.25;17.60;;;13.00;98.30;;;;;;7339194;19;110808;-81
2022/03/22 08:25:33;;;;;;;24.83;17.10;;;13.10;98.10;;;;;;7339075;19;111773;-82
2022/03/22 08:28:03;;;;;;;28.25;17.08;;;13.30;98.30;;;;;;7336735;19;112087;-82
2022/03/22 08:30:34;;;;;;;23.58;16.00;;;13.40;97.70;;;;;;7339527;19;110523;-82
2022/03/22 08:33:11;;;;;;;25.98;15.63;;;13.50;97.60;;;;;;7344386;19;111428;-82
2022/03/22 08:35:46;;;;;;;;;;;13.60;97.20;;;;;;7339673;19;110321;-81
2022/03/22 08:38:20;;;;;;;27.63;16.15;;;13.70;96.70;;;;;;7342248;19;111564;-82
2022/03/22 08:40:49;;;;;;;23.05;14.77;;;13.80;96.20;;;;;;7338708;19;111247;-82
2022/03/22 08:43:16;;;;;;;30.33;16.83;;;13.90;96.50;;;;;;7338272;19;113743;-81
2022/03/22 08:45:44;;;;;;;25.98;16.23;;;14.00;96.40;;;;;;7337906;19;111496;-82
2022/03/22 08:48:12;;;;;;;25.83;16.08;;;14.10;96.30;;;;;;7338614;19;112094;-82
2022/03/22 08:50:43;;;;;;;27.50;16.60;;;14.30;96.00;;;;;;7339212;19;111256;-82
2022/03/22 08:53:13;;;;;;;25.58;15.40;;;14.40;95.90;;;;;;7338294;19;111736;-82
2022/03/22 08:55:47;;;;;;;31.08;17.25;;;14.50;95.70;;;;;;7343903;19;111730;-82
2022/03/22 08:58:16;;;;;;;26.77;16.45;;;14.60;95.60;;;;;;7336101;19;113007;-82
2022/03/22 09:00:45;;;;;;;22.08;16.10;;;14.70;95.40;;;;;;7338100;19;112035;-82
2022/03/22 09:03:12;;;;;;;26.38;16.17;;;14.70;95.40;;;;;;7337664;19;110325;-81
2022/03/22 09:08:29;;;;;;;28.08;16.83;;;15.00;95.00;;;;;;7337072;19;111882;-82
2022/03/22 09:10:56;;;;;;;25.25;14.73;;;15.10;94.60;;;;;;7337300;19;110376;-82
2022/03/22 09:13:29;;;;;;;29.08;16.55;;;15.20;94.40;;;;;;7338355;19;111622;-82
2022/03/22 09:15:56;;;;;;;26.42;15.43;;;15.30;94.10;;;;;;7343957;19;112223;-83
2022/03/22 09:18:25;;;;;;;29.15;16.40;;;15.40;94.20;;;;;;7335567;19;111868;-82
2022/03/22 09:20:53;;;;;;;29.77;16.15;;;15.50;94.10;;;;;;7337764;19;112388;-82
2022/03/22 09:23:21;;;;;;;24.25;15.82;;;15.60;94.10;;;;;;7336059;19;110671;-82
2022/03/22 09:25:48;;;;;;;29.05;15.73;;;15.70;93.90;;;;;;7337356;19;110651;-82
2022/03/22 09:28:15;;;;;;;35.92;16.42;;;15.80;94.00;;;;;;7337819;19;111831;-82
2022/03/22 09:30:42;;;;;;;25.00;16.05;;;15.90;93.80;;;;;;7338490;19;113525;-82
2022/03/22 09:33:11;;;;;;;30.95;16.55;;;16.00;93.80;;;;;;7338533;19;111434;-83
2022/03/22 09:35:39;;;;;;;28.33;15.73;;;16.10;93.80;;;;;;7337958;19;114755;-82
2022/03/22 09:38:06;;;;;;;25.42;16.52;;;16.20;93.90;;;;;;7340692;19;110311;-83
2022/03/22 09:40:33;;;;;;;26.73;16.33;;;16.40;93.70;;;;;;7337740;19;113002;-83
2022/03/22 09:43:00;;;;;;;28.85;16.80;;;16.50;93.40;;;;;;7337259;19;110405;-83
2022/03/22 09:45:33;;;;;;;28.00;16.08;;;16.60;93.30;;;;;;7336797;19;113842;-83
2022/03/22 09:48:01;;;;;;;28.77;17.17;;;16.70;92.50;;;;;;7337883;19;112829;-83
2022/03/22 09:53:16;;;;;;;24.58;15.85;;;16.70;92.60;;;;;;7335770;19;111453;-82
2022/03/22 09:55:45;;;;;;;24.77;16.10;;;16.80;92.40;;;;;;7334764;19;111839;-81
2022/03/22 09:58:13;;;;;;;29.63;17.20;;;16.90;92.80;;;;;;7334074;19;113506;-83
2022/03/22 10:00:40;;;;;;;26.27;16.25;;;17.10;92.70;;;;;;7342353;19;111890;-84
2022/03/22 10:03:09;;;;;;;27.65;16.65;;;17.20;92.30;;;;;;7334496;19;110509;-83
2022/03/22 10:05:36;;;;;;;26.15;16.25;;;17.20;92.20;;;;;;7333333;19;111417;-83
2022/03/22 10:08:08;;;;;;;25.08;16.30;;;17.40;92.00;;;;;;7334363;19;112105;-82
2022/03/22 10:10:51;;;;;;;26.70;15.73;;;17.40;91.80;;;;;;7335699;19;111428;-83
2022/03/22 10:13:18;;;;;;;27.42;16.17;;;17.60;92.00;;;;;;7333354;19;110317;-83
2022/03/22 10:15:46;;;;;;;34.05;17.17;;;17.70;91.60;;;;;;7335294;19;111869;-83
2022/03/22 10:18:13;;;;;;;26.60;16.10;;;17.80;91.00;;;;;;7332598;19;110175;-84
2022/03/22 10:20:41;;;;;;;24.10;17.00;;;17.80;91.10;;;;;;7335801;19;111160;-83
2022/03/22 10:23:10;;;;;;;27.38;17.15;;;17.80;90.30;;;;;;7337805;19;116224;-84
2022/03/22 10:25:39;;;;;;;26.00;15.68;;;17.80;89.70;;;;;;7335411;19;111136;-84
2022/03/22 10:28:07;;;;;;;27.23;16.65;;;17.80;90.10;;;;;;7334945;19;112209;-83
2022/03/22 10:30:35;;;;;;;25.08;16.92;;;17.90;90.30;;;;;;7333078;19;110196;-82
2022/03/22 10:33:06;;;;;;;23.55;15.55;;;18.00;90.10;;;;;;7331587;19;110424;-82
2022/03/22 10:35:37;;;;;;;33.22;17.27;;;18.20;89.90;;;;;;7334095;19;111371;-83
2022/03/22 10:38:06;;;;;;;28.58;16.73;;;18.30;90.10;;;;;;7332350;19;110647;-83
2022/03/22 10:40:44;;;;;;;27.13;16.00;;;18.40;89.20;;;;;;7333750;19;110113;-83
2022/03/22 10:43:12;;;;;;;30.50;15.38;;;18.50;88.40;;;;;;7334492;19;112371;-83
2022/03/22 10:45:46;;;;;;;28.45;15.50;;;18.60;88.90;;;;;;7336891;19;111132;-83
2022/03/22 10:48:36;;;;;;;26.75;15.82;;;18.70;87.40;;;;;;7332582;19;112357;-83
2022/03/22 10:51:05;;;;;;;29.75;15.45;;;18.80;87.40;;;;;;7335444;19;110571;-82
2022/03/22 10:53:35;;;;;;;26.67;16.77;;;18.80;87.60;;;;;;7340422;19;111553;-81
2022/03/22 10:56:04;;;;;;;24.23;16.27;;;18.90;88.00;;;;;;7338438;19;112032;-81
2022/03/22 10:58:32;;;;;;;28.70;17.45;;;19.00;88.00;;;;;;7339911;19;110262;-80
2022/03/22 11:01:02;;;;;;;33.05;16.20;;;19.10;86.50;;;;;;7340036;19;111762;-82
2022/03/22 11:03:32;;;;;;;29.67;15.32;;;19.10;85.40;;;;;;7340369;19;111770;-81
2022/03/22 11:06:03;;;;;;;28.15;15.70;;;19.20;85.00;;;;;;7342450;19;112400;-81
2022/03/22 11:08:30;;;;;;;27.75;16.35;;;19.20;84.20;;;;;;7344167;19;110256;-80
2022/03/22 11:11:00;;;;;;;27.25;15.20;;;19.40;84.90;;;;;;7340141;19;110455;-81
2022/03/22 11:13:27;;;;;;;26.20;15.40;;;19.50;84.90;;;;;;7341577;19;111427;-81
2022/03/22 11:15:56;;;;;;;28.13;15.98;;;19.50;82.10;;;;;;7342101;19;112027;-81
2022/03/22 11:18:28;;;;;;;36.28;15.98;;;19.50;83.40;;;;;;7339202;19;110343;-81
2022/03/22 11:21:00;;;;;;;35.90;16.77;;;19.70;80.80;;;;;;7340831;19;112110;-81
2022/03/22 11:23:30;;;;;;;25.55;15.20;;;19.70;80.10;;;;;;7339661;19;111842;-81
2022/03/22 11:26:16;;;;;;;25.10;16.05;;;19.60;75.80;;;;;;7341367;19;110150;-82
2022/03/22 11:28:45;;;;;;;31.35;15.43;;;19.50;78.60;;;;;;7343625;19;110389;-81
2022/03/22 11:31:19;;;;;;;25.40;15.65;;;19.70;78.20;;;;;;7341010;19;110562;-81
2022/03/22 11:36:45;;;;;;;26.73;15.83;;;19.80;80.10;;;;;;7341401;19;112101;-80
2022/03/22 11:39:17;;;;;;;29.88;14.98;;;20.00;80.10;;;;;;7337043;19;111615;-82
2022/03/22 11:44:31;;;;;;;23.00;13.88;;;20.40;77.70;;;;;;7339546;19;111768;-82
2022/03/22 11:47:17;;;;;;;22.25;13.32;;;20.30;70.10;;;;;;7339045;19;110178;-82
2022/03/22 11:50:03;;;;;;;19.17;12.85;;;20.30;74.60;;;;;;7339613;19;112326;-82
2022/03/22 11:52:33;;;;;;;21.55;11.52;;;20.40;75.40;;;;;;7345337;19;111832;-82
2022/03/22 11:55:01;;;;;;;40.60;12.68;;;20.60;75.00;;;;;;7339417;19;111723;-83
2022/03/22 11:57:39;;;;;;;23.05;12.15;;;20.80;75.70;;;;;;7338943;19;110444;-81
2022/03/22 12:00:06;;;;;;;21.75;13.95;;;21.00;74.70;;;;;;7337413;19;110525;-82
2022/03/22 12:02:38;;;;;;;24.40;13.82;;;21.20;75.00;;;;;;7338856;19;111569;-82
2022/03/22 12:05:05;;;;;;;20.95;14.88;;;21.40;74.00;;;;;;7337605;19;112094;-82
2022/03/22 12:07:36;;;;;;;24.58;15.70;;;21.50;74.40;;;;;;7339210;19;110975;-82
2022/03/22 12:10:08;;;;;;;26.42;15.50;;;21.60;74.80;;;;;;7337684;19;111511;-82
2022/03/22 12:12:37;;;;;;;26.25;15.98;;;21.70;70.00;;;;;;7339531;19;111334;-83
2022/03/22 12:15:09;;;;;;;38.40;13.95;;;21.50;66.00;;;;;;7344509;19;110600;-82
2022/03/22 12:17:39;;;;;;;24.02;11.55;;;21.30;70.40;;;;;;7338696;19;111906;-82
2022/03/22 12:20:12;;;;;;;23.38;12.60;;;21.40;70.80;;;;;;7337526;19;110888;-82
2022/03/22 12:22:48;;;;;;;21.73;11.15;;;21.60;70.10;;;;;;7338884;19;111073;-82
2022/03/22 12:25:18;;;;;;;26.80;13.25;;;21.80;69.00;;;;;;7337783;19;112168;-82
2022/03/22 12:27:56;;;;;;;22.75;13.55;;;21.90;70.10;;;;;;7339149;19;111309;-82
2022/03/22 12:30:26;;;;;;;24.55;15.00;;;22.20;71.10;;;;;;7339170;19;111737;-82
2022/03/22 12:32:55;;;;;;;30.13;15.73;;;22.40;69.80;;;;;;7339495;19;111763;-83
2022/03/22 12:35:23;;;;;;;26.73;14.85;;;22.40;66.40;;;;;;7338610;19;110366;-83
2022/03/22 12:37:52;;;;;;;22.23;13.65;;;22.50;69.30;;;;;;7344612;19;111546;-83
2022/03/22 12:40:21;;;;;;;35.83;12.93;;;22.70;69.30;;;;;;7338952;19;111208;-82
2022/03/22 12:42:50;;;;;;;21.95;12.88;;;22.70;65.50;;;;;;7339686;19;110335;-82
2022/03/22 12:45:19;;;;;;;23.10;12.80;;;22.80;65.60;;;;;;7338091;19;111871;-82
2022/03/22 12:47:48;;;;;;;20.73;13.25;;;22.80;64.80;;;;;;7338897;19;111104;-83
2022/03/22 12:50:17;;;;;;;24.83;13.95;;;22.90;63.70;;;;;;7338358;19;111456;-83
2022/03/22 12:52:45;;;;;;;19.55;11.88;;;23.00;65.60;;;;;;7337625;19;111741;-82
2022/03/22 12:55:13;;;;;;;18.75;10.75;;;23.10;66.30;;;;;;7337346;19;110528;-83
2022/03/22 12:57:44;;;;;;;30.05;14.07;;;23.20;62.90;;;;;;7338581;19;111872;-82
2022/03/22 13:00:23;;;;;;;25.00;13.35;;;23.00;62.60;;;;;;7342157;19;110991;-83
2022/03/22 13:02:50;;;;;;;18.65;12.18;;;23.00;65.10;;;;;;7337842;19;111336;-83
2022/03/22 13:05:27;;;;;;;19.58;11.80;;;23.20;64.70;;;;;;7338024;19;110516;-82
2022/03/22 13:08:18;;;;;;;19.85;12.25;;;23.40;60.30;;;;;;7336676;19;111842;-82
2022/03/22 13:16:26;;;;;;;20.60;12.30;;;23.50;60.40;;;;;;7338386;19;110470;-82